Time;durP1;ratioP1;P1;durP2;ratioP2;P2;SDS_P1;SDS_P2;PMS_P1;PMS_P2;Temp;Humidity;BMP_temperature;BMP_pressure;BME280_temperature;BME280_humidity;BME280_pressure;Samples;Min_cycle;Max_cycle;Signal;HPM_P1;HPM_P2
2023/07/04 00:01:19;;;;;;;25.40;23.43;;;;;;;;;;5094184;28;20493;-81
2023/07/04 00:03:47;;;;;;;24.03;22.30;;;;;;;;;;5094242;28;20484;-80
2023/07/04 00:06:15;;;;;;;25.37;23.50;;;;;;;;;;5093471;28;20453;-80
2023/07/04 00:08:43;;;;;;;25.20;22.93;;;;;;;;;;5094292;28;20430;-80
2023/07/04 00:11:11;;;;;;;25.03;23.17;;;;;;;;;;5092994;28;20504;-81
2023/07/04 00:13:39;;;;;;;24.80;23.03;;;;;;;;;;5094381;28;20525;-82
2023/07/04 00:16:07;;;;;;;24.20;22.57;;;;;;;;;;5093452;28;20457;-81
2023/07/04 00:18:36;;;;;;;24.80;23.10;;;;;;;;;;5093717;28;20427;-81
2023/07/04 00:21:04;;;;;;;24.60;22.70;;;;;;;;;;5093560;28;20443;-80
2023/07/04 00:23:33;;;;;;;26.30;24.47;;;;;;;;;;5094194;28;20425;-81
2023/07/04 00:26:02;;;;;;;28.57;22.50;;;;;;;;;;5093853;28;20868;-81
2023/07/04 00:28:29;;;;;;;25.33;23.30;;;;;;;;;;5093795;28;20465;-81
2023/07/04 00:30:57;;;;;;;23.80;22.07;;;;;;;;;;5094001;28;20447;-82
2023/07/04 00:33:24;;;;;;;23.07;21.43;;;;;;;;;;5093334;28;20469;-82
2023/07/04 00:35:59;;;;;;;24.23;22.60;;;;;;;;;;5094469;28;20408;-81
2023/07/04 00:38:26;;;;;;;24.47;22.63;;;;;;;;;;5096014;28;20423;-82
2023/07/04 00:40:54;;;;;;;23.53;21.73;;;;;;;;;;5094396;28;20522;-79
2023/07/04 00:43:23;;;;;;;24.63;22.73;;;;;;;;;;5092400;28;20463;-81
2023/07/04 00:45:56;;;;;;;23.40;21.53;;;;;;;;;;5093046;28;20452;-81
2023/07/04 00:48:24;;;;;;;23.70;21.97;;;;;;;;;;5093876;28;20408;-80
2023/07/04 00:50:54;;;;;;;24.07;22.30;;;;;;;;;;5093744;28;20453;-82
2023/07/04 00:53:21;;;;;;;22.90;21.20;;;;;;;;;;5092475;28;20501;-81
2023/07/04 00:55:49;;;;;;;21.70;20.37;;;;;;;;;;5093381;28;20831;-81
2023/07/04 00:58:17;;;;;;;21.77;20.57;;;;;;;;;;5093052;28;20862;-82
2023/07/04 01:00:46;;;;;;;21.50;19.90;;;;;;;;;;5093213;28;20447;-80
2023/07/04 01:03:14;;;;;;;21.37;20.17;;;;;;;;;;5093375;28;20513;-80
2023/07/04 01:05:44;;;;;;;21.67;20.40;;;;;;;;;;5092848;28;20436;-81
2023/07/04 01:08:12;;;;;;;20.67;19.37;;;;;;;;;;5093269;28;20422;-80
2023/07/04 01:10:42;;;;;;;20.97;19.33;;;;;;;;;;5092974;28;20472;-79
2023/07/04 01:13:24;;;;;;;20.33;19.20;;;;;;;;;;5093570;28;20446;-81
2023/07/04 01:15:52;;;;;;;20.00;18.80;;;;;;;;;;5092247;28;20747;-80
2023/07/04 01:18:20;;;;;;;20.90;19.20;;;;;;;;;;5092850;28;20403;-81
2023/07/04 01:20:47;;;;;;;20.13;19.03;;;;;;;;;;5093194;28;20546;-81
2023/07/04 01:23:18;;;;;;;20.90;19.70;;;;;;;;;;5092292;28;20524;-80
2023/07/04 01:25:48;;;;;;;20.60;19.50;;;;;;;;;;5092511;28;20497;-80
2023/07/04 01:28:17;;;;;;;20.73;19.60;;;;;;;;;;5093166;28;20431;-80
2023/07/04 01:30:46;;;;;;;21.20;20.10;;;;;;;;;;5093087;28;20484;-80
2023/07/04 01:33:13;;;;;;;20.37;19.27;;;;;;;;;;5093427;28;20434;-80
2023/07/04 01:35:41;;;;;;;20.20;19.10;;;;;;;;;;5092046;28;20429;-81
2023/07/04 01:38:08;;;;;;;21.03;19.93;;;;;;;;;;5092853;28;20423;-81
2023/07/04 01:40:35;;;;;;;20.03;18.93;;;;;;;;;;5091793;28;20466;-81
2023/07/04 01:43:02;;;;;;;20.47;19.37;;;;;;;;;;5092635;28;20507;-81
2023/07/04 01:45:31;;;;;;;20.67;19.50;;;;;;;;;;5092185;28;20455;-80
2023/07/04 01:47:57;;;;;;;20.27;19.27;;;;;;;;;;5092931;28;20471;-80
2023/07/04 01:50:25;;;;;;;20.30;19.20;;;;;;;;;;5092420;28;20458;-82
2023/07/04 01:52:52;;;;;;;19.90;18.80;;;;;;;;;;5092144;28;20472;-81
2023/07/04 01:55:19;;;;;;;21.10;19.80;;;;;;;;;;5092262;28;20997;-79
2023/07/04 01:57:46;;;;;;;20.77;19.67;;;;;;;;;;5091963;28;20448;-81
2023/07/04 02:00:13;;;;;;;20.53;19.33;;;;;;;;;;5092281;28;21165;-80
2023/07/04 02:02:43;;;;;;;20.83;19.53;;;;;;;;;;5092358;28;20966;-80
2023/07/04 02:05:10;;;;;;;20.63;19.57;;;;;;;;;;5092265;28;20904;-80
2023/07/04 02:07:37;;;;;;;20.17;18.90;;;;;;;;;;5095744;28;20464;-80
2023/07/04 02:10:04;;;;;;;20.30;19.30;;;;;;;;;;5095706;28;20476;-79
2023/07/04 02:12:31;;;;;;;20.57;19.47;;;;;;;;;;5095722;28;20454;-80
2023/07/04 02:14:58;;;;;;;20.67;19.47;;;;;;;;;;5096206;28;20482;-80
2023/07/04 02:17:25;;;;;;;20.23;19.13;;;;;;;;;;5095332;28;20435;-80
2023/07/04 02:19:54;;;;;;;20.97;19.67;;;;;;;;;;5096331;28;20424;-81
2023/07/04 02:22:21;;;;;;;20.57;19.47;;;;;;;;;;5095366;28;20879;-80
2023/07/04 02:24:48;;;;;;;20.30;19.30;;;;;;;;;;5096258;28;20459;-80
2023/07/04 02:27:15;;;;;;;21.50;20.30;;;;;;;;;;5095429;28;20459;-80
2023/07/04 02:29:42;;;;;;;20.80;19.70;;;;;;;;;;5096040;28;20457;-80
2023/07/04 02:32:09;;;;;;;19.90;18.70;;;;;;;;;;5095438;28;20534;-81
2023/07/04 02:34:36;;;;;;;20.90;19.60;;;;;;;;;;5095787;28;20448;-80
2023/07/04 02:37:05;;;;;;;20.87;19.77;;;;;;;;;;5094797;28;20449;-80
2023/07/04 02:39:32;;;;;;;20.50;19.30;;;;;;;;;;5095248;28;20427;-81
2023/07/04 02:41:59;;;;;;;20.73;19.53;;;;;;;;;;5095353;28;20472;-80
2023/07/04 02:44:26;;;;;;;22.23;20.70;;;;;;;;;;5095660;28;20428;-80
2023/07/04 02:46:53;;;;;;;21.27;19.87;;;;;;;;;;5094908;28;20796;-80
2023/07/04 02:49:20;;;;;;;20.47;19.33;;;;;;;;;;5095780;28;20449;-79
2023/07/04 02:51:47;;;;;;;20.43;19.33;;;;;;;;;;5094114;28;20862;-81
2023/07/04 02:54:16;;;;;;;20.53;19.43;;;;;;;;;;5095032;28;20451;-80
2023/07/04 02:56:43;;;;;;;21.10;19.90;;;;;;;;;;5094576;28;20457;-80
2023/07/04 02:59:10;;;;;;;20.03;18.83;;;;;;;;;;5106093;28;20559;-80
2023/07/04 03:01:37;;;;;;;22.17;20.77;;;;;;;;;;5115829;28;20716;-79
2023/07/04 03:04:04;;;;;;;20.50;19.40;;;;;;;;;;5116668;28;20443;-81
2023/07/04 03:06:31;;;;;;;20.53;19.33;;;;;;;;;;5099970;28;20525;-82
2023/07/04 03:08:58;;;;;;;20.30;19.10;;;;;;;;;;5096183;28;20440;-81
2023/07/04 03:11:26;;;;;;;19.67;18.60;;;;;;;;;;5095384;28;21169;-80
2023/07/04 03:13:53;;;;;;;19.70;18.60;;;;;;;;;;5096160;28;20466;-81
2023/07/04 03:16:20;;;;;;;19.20;18.20;;;;;;;;;;5095326;28;20431;-80
2023/07/04 03:18:47;;;;;;;20.53;19.43;;;;;;;;;;5095818;28;20449;-82
2023/07/04 03:21:14;;;;;;;21.37;19.90;;;;;;;;;;5094783;28;20537;-81
2023/07/04 03:23:41;;;;;;;20.07;19.00;;;;;;;;;;5094986;28;20465;-80
2023/07/04 03:26:08;;;;;;;20.83;19.40;;;;;;;;;;5094759;28;20469;-81
2023/07/04 03:28:37;;;;;;;22.23;20.83;;;;;;;;;;5095252;28;20440;-81
2023/07/04 03:31:04;;;;;;;21.30;20.00;;;;;;;;;;5094857;28;20522;-80
2023/07/04 03:33:31;;;;;;;22.03;20.50;;;;;;;;;;5095256;28;20464;-82
2023/07/04 03:35:58;;;;;;;22.67;21.37;;;;;;;;;;5094636;28;20508;-80
2023/07/04 03:38:25;;;;;;;20.83;19.53;;;;;;;;;;5095202;28;20419;-78
2023/07/04 03:40:52;;;;;;;21.53;19.90;;;;;;;;;;5093937;28;20472;-78
2023/07/04 03:43:19;;;;;;;21.77;20.40;;;;;;;;;;5093549;28;20545;-80
2023/07/04 03:45:47;;;;;;;22.10;20.47;;;;;;;;;;5093759;28;20483;-80
2023/07/04 03:48:14;;;;;;;20.90;19.60;;;;;;;;;;5094740;28;20926;-81
2023/07/04 03:50:42;;;;;;;22.47;20.97;;;;;;;;;;5094629;28;20477;-81
2023/07/04 03:53:09;;;;;;;22.50;20.87;;;;;;;;;;5094110;28;20510;-81
2023/07/04 03:55:36;;;;;;;21.67;20.37;;;;;;;;;;5094324;28;20834;-81
2023/07/04 03:58:04;;;;;;;23.57;21.87;;;;;;;;;;5094891;28;20422;-82
2023/07/04 04:00:31;;;;;;;22.63;20.93;;;;;;;;;;5094750;28;20471;-80
2023/07/04 04:02:59;;;;;;;23.30;21.27;;;;;;;;;;5094723;28;20458;-81
2023/07/04 04:05:27;;;;;;;24.37;22.57;;;;;;;;;;5094678;28;20441;-81
2023/07/04 04:07:54;;;;;;;24.07;22.20;;;;;;;;;;5093810;28;20445;-80
2023/07/04 04:10:21;;;;;;;22.60;21.10;;;;;;;;;;5093048;28;20461;-79
2023/07/04 04:12:48;;;;;;;23.40;21.70;;;;;;;;;;5092935;28;20418;-78
2023/07/04 04:15:15;;;;;;;22.70;21.10;;;;;;;;;;5093354;28;20481;-78
2023/07/04 04:17:43;;;;;;;21.13;19.83;;;;;;;;;;5092494;28;20442;-79
2023/07/04 04:20:12;;;;;;;21.70;20.20;;;;;;;;;;5092873;28;20450;-79
2023/07/04 04:22:44;;;;;;;22.00;20.00;;;;;;;;;;5092806;28;20496;-78
2023/07/04 04:25:11;;;;;;;22.37;20.50;;;;;;;;;;5092836;28;20938;-78
2023/07/04 04:27:39;;;;;;;21.30;20.03;;;;;;;;;;5093152;28;20426;-79
2023/07/04 04:30:08;;;;;;;22.40;20.67;;;;;;;;;;5092284;28;20437;-78
2023/07/04 04:32:35;;;;;;;23.10;21.03;;;;;;;;;;5093552;28;20455;-78
2023/07/04 04:35:02;;;;;;;22.80;21.10;;;;;;;;;;5093188;28;20525;-79
2023/07/04 04:37:30;;;;;;;22.80;21.10;;;;;;;;;;5092119;28;20419;-78
2023/07/04 04:39:59;;;;;;;23.63;21.83;;;;;;;;;;5093058;28;20508;-79
2023/07/04 04:42:26;;;;;;;22.77;21.30;;;;;;;;;;5092355;28;20434;-79
2023/07/04 04:44:54;;;;;;;22.87;21.07;;;;;;;;;;5092606;28;20565;-79
2023/07/04 04:47:23;;;;;;;21.77;20.23;;;;;;;;;;5091841;28;20482;-78
2023/07/04 04:49:50;;;;;;;22.83;21.13;;;;;;;;;;5092641;28;20524;-79
2023/07/04 04:52:17;;;;;;;23.27;21.67;;;;;;;;;;5092608;28;20426;-79
2023/07/04 04:54:47;;;;;;;23.13;21.47;;;;;;;;;;5092788;28;20431;-78
2023/07/04 04:57:14;;;;;;;22.17;20.57;;;;;;;;;;5092043;28;20441;-80
2023/07/04 04:59:41;;;;;;;21.40;20.07;;;;;;;;;;5092696;28;20479;-78
2023/07/04 05:02:09;;;;;;;22.07;20.23;;;;;;;;;;5091746;28;21120;-80
2023/07/04 05:04:36;;;;;;;22.07;20.63;;;;;;;;;;5092945;28;20488;-78
2023/07/04 05:07:03;;;;;;;23.97;22.23;;;;;;;;;;5092233;28;20487;-80
2023/07/04 05:09:30;;;;;;;21.53;20.10;;;;;;;;;;5093282;28;20822;-80
2023/07/04 05:11:58;;;;;;;22.33;20.73;;;;;;;;;;5093005;28;20467;-81
2023/07/04 05:14:25;;;;;;;22.13;20.30;;;;;;;;;;5093263;28;20419;-80
2023/07/04 05:16:52;;;;;;;23.33;21.50;;;;;;;;;;5091355;28;20460;-78
2023/07/04 05:19:19;;;;;;;21.07;19.77;;;;;;;;;;5092539;28;20453;-78
2023/07/04 05:21:47;;;;;;;21.20;19.90;;;;;;;;;;5092023;28;20443;-78
2023/07/04 05:24:14;;;;;;;21.80;20.40;;;;;;;;;;5092394;28;20496;-79
2023/07/04 05:26:41;;;;;;;21.40;19.90;;;;;;;;;;5091227;28;20901;-80
2023/07/04 05:29:10;;;;;;;21.93;19.80;;;;;;;;;;5092385;28;20421;-79
2023/07/04 05:31:37;;;;;;;22.43;20.70;;;;;;;;;;5091090;28;20466;-77
2023/07/04 05:34:04;;;;;;;22.13;20.33;;;;;;;;;;5092251;28;20474;-79
2023/07/04 05:36:33;;;;;;;22.10;20.47;;;;;;;;;;5091791;28;20435;-79
2023/07/04 05:39:01;;;;;;;22.90;21.17;;;;;;;;;;5092160;28;20430;-79
2023/07/04 05:41:28;;;;;;;21.40;20.10;;;;;;;;;;5093878;28;20468;-79
2023/07/04 05:43:56;;;;;;;21.60;20.10;;;;;;;;;;5095111;28;20455;-79
2023/07/04 05:46:25;;;;;;;21.03;19.73;;;;;;;;;;5095159;28;20448;-80
2023/07/04 05:48:52;;;;;;;20.60;19.30;;;;;;;;;;5095952;28;20566;-79
2023/07/04 05:51:20;;;;;;;21.83;20.33;;;;;;;;;;5096860;28;20476;-79
2023/07/04 05:53:48;;;;;;;21.00;19.87;;;;;;;;;;5095948;28;20622;-81
2023/07/04 05:56:16;;;;;;;22.30;20.70;;;;;;;;;;5095914;28;20525;-80
2023/07/04 05:58:44;;;;;;;22.90;21.13;;;;;;;;;;5096374;28;20452;-80
2023/07/04 06:01:12;;;;;;;23.40;22.00;;;;;;;;;;5095534;28;20521;-79
2023/07/04 06:03:40;;;;;;;22.10;20.57;;;;;;;;;;5095073;28;20485;-80
2023/07/04 06:06:08;;;;;;;22.47;20.40;;;;;;;;;;5095320;28;20981;-79
2023/07/04 06:08:35;;;;;;;22.27;20.63;;;;;;;;;;5095935;28;20510;-78
2023/07/04 06:11:02;;;;;;;23.77;22.03;;;;;;;;;;5095700;28;20481;-80
2023/07/04 06:13:30;;;;;;;23.07;21.37;;;;;;;;;;5095545;28;20509;-79
2023/07/04 06:15:57;;;;;;;23.33;21.63;;;;;;;;;;5094340;28;20497;-79
2023/07/04 06:18:24;;;;;;;23.23;21.33;;;;;;;;;;5095041;28;21013;-79
2023/07/04 06:20:53;;;;;;;24.90;22.83;;;;;;;;;;5095214;28;20468;-79
2023/07/04 06:23:20;;;;;;;23.60;21.70;;;;;;;;;;5095213;28;20522;-80
2023/07/04 06:25:47;;;;;;;24.50;22.60;;;;;;;;;;5094272;28;20475;-78
2023/07/04 06:28:14;;;;;;;23.23;21.70;;;;;;;;;;5096557;28;20475;-79
2023/07/04 06:30:42;;;;;;;23.40;21.80;;;;;;;;;;5095025;28;20443;-79
2023/07/04 06:33:09;;;;;;;25.47;23.30;;;;;;;;;;5095609;28;20441;-79
2023/07/04 06:35:41;;;;;;;23.77;22.07;;;;;;;;;;5095056;28;20514;-79
2023/07/04 06:38:09;;;;;;;24.73;23.03;;;;;;;;;;5095935;28;20441;-79
2023/07/04 06:40:36;;;;;;;24.20;22.40;;;;;;;;;;5095102;28;20477;-79
2023/07/04 06:43:05;;;;;;;24.80;22.57;;;;;;;;;;5095499;28;20480;-79
2023/07/04 06:45:32;;;;;;;24.83;22.67;;;;;;;;;;5094586;28;20458;-79
2023/07/04 06:47:59;;;;;;;24.43;22.33;;;;;;;;;;5095772;28;20482;-79
2023/07/04 06:50:26;;;;;;;23.00;21.50;;;;;;;;;;5095686;28;20446;-80
2023/07/04 06:52:53;;;;;;;22.50;21.00;;;;;;;;;;5094018;28;20446;-79
2023/07/04 06:55:22;;;;;;;22.90;21.10;;;;;;;;;;5095107;28;20850;-80
2023/07/04 06:57:49;;;;;;;24.60;22.03;;;;;;;;;;5094189;28;20456;-79
2023/07/04 07:00:16;;;;;;;22.50;20.87;;;;;;;;;;5094811;28;20473;-80
2023/07/04 07:02:43;;;;;;;23.27;21.80;;;;;;;;;;5093885;28;20435;-79
2023/07/04 07:05:10;;;;;;;22.13;20.83;;;;;;;;;;5094735;28;20524;-80
2023/07/04 07:07:39;;;;;;;24.40;22.60;;;;;;;;;;5094855;28;20415;-79
2023/07/04 07:10:08;;;;;;;23.17;21.10;;;;;;;;;;5094927;28;20472;-79
2023/07/04 07:12:37;;;;;;;22.13;20.60;;;;;;;;;;5094766;28;20469;-79
2023/07/04 07:15:04;;;;;;;23.70;21.67;;;;;;;;;;5095219;28;20430;-79
2023/07/04 07:17:33;;;;;;;22.43;21.13;;;;;;;;;;5094630;28;20453;-81
2023/07/04 07:20:00;;;;;;;23.10;21.50;;;;;;;;;;5094665;28;20450;-78
2023/07/04 07:22:27;;;;;;;22.70;20.93;;;;;;;;;;5093880;28;20465;-79
2023/07/04 07:24:54;;;;;;;23.47;21.50;;;;;;;;;;5093177;28;20451;-80
2023/07/04 07:27:21;;;;;;;23.47;21.50;;;;;;;;;;5093198;28;20415;-79
2023/07/04 07:29:50;;;;;;;23.83;21.80;;;;;;;;;;5094397;28;20423;-79
2023/07/04 07:32:17;;;;;;;23.03;21.33;;;;;;;;;;5093990;28;20441;-79
2023/07/04 07:34:44;;;;;;;23.47;21.57;;;;;;;;;;5093726;28;20495;-79
2023/07/04 07:37:12;;;;;;;22.47;21.03;;;;;;;;;;5094735;28;20475;-78
2023/07/04 07:39:40;;;;;;;24.00;22.03;;;;;;;;;;5117411;28;20437;-83
2023/07/04 07:42:08;;;;;;;24.00;21.70;;;;;;;;;;5116922;28;20448;-79
2023/07/04 07:44:35;;;;;;;22.87;21.23;;;;;;;;;;5111686;28;20462;-79
2023/07/04 07:47:04;;;;;;;25.30;23.40;;;;;;;;;;5095045;28;20535;-79
2023/07/04 07:49:31;;;;;;;25.10;23.20;;;;;;;;;;5095593;28;20438;-80
2023/07/04 07:51:58;;;;;;;24.97;23.20;;;;;;;;;;5095425;28;20500;-80
2023/07/04 07:54:25;;;;;;;25.30;23.03;;;;;;;;;;5093232;28;20519;-80
2023/07/04 07:56:52;;;;;;;25.13;22.70;;;;;;;;;;5092551;28;20465;-80
2023/07/04 07:59:20;;;;;;;25.80;23.13;;;;;;;;;;5094990;28;20453;-77
2023/07/04 08:01:47;;;;;;;25.90;23.53;;;;;;;;;;5093944;28;20465;-80
2023/07/04 08:04:16;;;;;;;26.17;23.33;;;;;;;;;;5093368;28;20458;-78
2023/07/04 08:06:44;;;;;;;25.80;23.50;;;;;;;;;;5093503;28;20415;-79
2023/07/04 08:09:12;;;;;;;25.83;23.83;;;;;;;;;;5092705;28;20518;-77
2023/07/04 08:11:39;;;;;;;27.30;22.90;;;;;;;;;;5092032;28;20477;-77
2023/07/04 08:14:06;;;;;;;25.33;23.13;;;;;;;;;;5091920;28;20449;-77
2023/07/04 08:16:44;;;;;;;25.83;23.43;;;;;;;;;;5091360;28;20484;-77
2023/07/04 08:19:11;;;;;;;28.27;25.63;;;;;;;;;;5087855;28;20431;-77
2023/07/04 08:21:40;;;;;;;27.47;24.87;;;;;;;;;;5091771;28;20451;-77
2023/07/04 08:24:10;;;;;;;26.93;24.60;;;;;;;;;;5092029;28;20468;-77
2023/07/04 08:26:38;;;;;;;24.53;22.57;;;;;;;;;;5090598;28;20508;-77
2023/07/04 08:29:06;;;;;;;28.10;25.67;;;;;;;;;;5092056;28;20427;-77
2023/07/04 08:31:33;;;;;;;25.53;23.33;;;;;;;;;;5091168;28;20469;-77
2023/07/04 08:34:01;;;;;;;27.30;25.37;;;;;;;;;;5091721;28;20474;-79
2023/07/04 08:36:28;;;;;;;26.60;24.40;;;;;;;;;;5090597;28;20451;-78
2023/07/04 08:38:57;;;;;;;26.10;23.80;;;;;;;;;;5091820;28;20423;-78
2023/07/04 08:41:28;;;;;;;26.50;24.40;;;;;;;;;;5091507;28;20526;-78
2023/07/04 08:43:58;;;;;;;28.87;25.73;;;;;;;;;;5091512;28;20453;-77
2023/07/04 08:46:25;;;;;;;25.80;23.90;;;;;;;;;;5090455;28;20534;-77
2023/07/04 08:48:52;;;;;;;26.20;23.77;;;;;;;;;;5091441;28;20755;-78
2023/07/04 08:51:22;;;;;;;28.63;26.37;;;;;;;;;;5090846;28;20541;-77
2023/07/04 08:53:53;;;;;;;27.03;24.93;;;;;;;;;;5091247;28;20437;-77
2023/07/04 08:56:26;;;;;;;27.20;24.73;;;;;;;;;;5090874;28;20448;-78
2023/07/04 08:58:56;;;;;;;25.00;23.10;;;;;;;;;;5090704;28;20500;-77
2023/07/04 09:01:38;;;;;;;26.13;23.93;;;;;;;;;;5090722;28;20444;-77
2023/07/04 09:04:07;;;;;;;26.80;24.70;;;;;;;;;;5091594;28;20486;-77
2023/07/04 09:06:37;;;;;;;27.97;25.10;;;;;;;;;;5091248;28;20449;-77
2023/07/04 09:09:09;;;;;;;27.27;25.20;;;;;;;;;;5090900;28;20465;-77
2023/07/04 09:11:38;;;;;;;26.03;23.53;;;;;;;;;;5091145;28;20469;-78
2023/07/04 09:14:08;;;;;;;25.80;23.90;;;;;;;;;;5090850;28;20941;-77
2023/07/04 09:16:37;;;;;;;25.40;23.80;;;;;;;;;;5090278;28;20435;-77
2023/07/04 09:19:06;;;;;;;27.63;25.60;;;;;;;;;;5090032;28;20446;-77
2023/07/04 09:21:33;;;;;;;26.83;24.73;;;;;;;;;;5090879;28;20454;-77
2023/07/04 09:24:01;;;;;;;26.23;24.63;;;;;;;;;;5088907;28;21079;-77
2023/07/04 09:26:30;;;;;;;25.53;23.97;;;;;;;;;;5090464;28;20464;-77
2023/07/04 09:29:00;;;;;;;27.87;25.77;;;;;;;;;;5091681;28;20427;-77
2023/07/04 09:31:29;;;;;;;28.43;26.50;;;;;;;;;;5090969;28;20964;-77
2023/07/04 09:33:56;;;;;;;27.27;24.90;;;;;;;;;;5091202;28;20451;-77
2023/07/04 09:36:27;;;;;;;27.33;25.20;;;;;;;;;;5090580;28;20447;-78
2023/07/04 09:38:55;;;;;;;26.23;24.57;;;;;;;;;;5090600;28;20840;-76
2023/07/04 09:41:25;;;;;;;28.63;26.50;;;;;;;;;;5091272;28;20451;-78
2023/07/04 09:43:52;;;;;;;28.30;26.10;;;;;;;;;;5091389;28;20459;-77
2023/07/04 09:46:23;;;;;;;28.10;25.43;;;;;;;;;;5090285;28;20487;-77
2023/07/04 09:48:50;;;;;;;26.90;24.90;;;;;;;;;;5091345;28;20437;-79
2023/07/04 09:51:21;;;;;;;25.73;24.10;;;;;;;;;;5089939;28;21136;-77
2023/07/04 09:53:48;;;;;;;27.77;25.57;;;;;;;;;;5090888;28;20410;-77
2023/07/04 09:56:25;;;;;;;27.47;25.20;;;;;;;;;;5090129;28;20502;-77
2023/07/04 09:59:09;;;;;;;26.80;24.90;;;;;;;;;;5090441;28;20789;-76
2023/07/04 10:01:39;;;;;;;26.30;24.30;;;;;;;;;;5089995;28;20541;-78
2023/07/04 10:04:07;;;;;;;26.83;24.17;;;;;;;;;;5090543;28;20474;-77
2023/07/04 10:06:36;;;;;;;26.67;24.73;;;;;;;;;;5090345;28;20459;-77
2023/07/04 10:09:05;;;;;;;26.70;24.90;;;;;;;;;;5090863;28;20511;-77
2023/07/04 10:11:34;;;;;;;27.17;25.07;;;;;;;;;;5090745;28;20559;-77
2023/07/04 10:14:01;;;;;;;27.63;25.63;;;;;;;;;;5090538;28;20988;-77
2023/07/04 10:16:28;;;;;;;28.43;26.30;;;;;;;;;;5089914;28;20945;-77
2023/07/04 10:19:04;;;;;;;27.07;24.97;;;;;;;;;;5091049;28;20453;-77
2023/07/04 10:21:32;;;;;;;29.07;26.97;;;;;;;;;;5089787;28;20967;-77
2023/07/04 10:24:00;;;;;;;29.07;26.67;;;;;;;;;;5090024;28;20423;-75
2023/07/04 10:26:27;;;;;;;29.53;27.00;;;;;;;;;;5090087;28;20457;-77
2023/07/04 10:28:54;;;;;;;28.67;26.30;;;;;;;;;;5094254;28;20476;-78
2023/07/04 10:31:22;;;;;;;26.93;24.83;;;;;;;;;;5095506;28;20469;-78
2023/07/04 10:33:52;;;;;;;27.13;24.63;;;;;;;;;;5096999;28;20469;-77
2023/07/04 10:36:23;;;;;;;25.70;24.00;;;;;;;;;;5099955;28;20474;-82
2023/07/04 10:38:52;;;;;;;25.90;24.20;;;;;;;;;;5101351;28;20437;-78
2023/07/04 10:41:22;;;;;;;26.53;24.80;;;;;;;;;;5097713;28;20521;-78
2023/07/04 10:43:52;;;;;;;25.80;23.80;;;;;;;;;;5098919;28;20521;-78
2023/07/04 10:46:22;;;;;;;28.70;25.90;;;;;;;;;;5095848;28;20492;-81
2023/07/04 10:48:51;;;;;;;25.83;24.17;;;;;;;;;;5100301;28;20440;-82
2023/07/04 10:51:23;;;;;;;25.17;23.50;;;;;;;;;;5099197;28;20469;-88
2023/07/04 10:53:50;;;;;;;26.20;24.10;;;;;;;;;;5099145;28;20490;-85
2023/07/04 10:56:19;;;;;;;25.90;23.97;;;;;;;;;;5097899;28;20422;-82
2023/07/04 10:58:51;;;;;;;26.10;24.13;;;;;;;;;;5096293;28;20469;-79
2023/07/04 11:01:22;;;;;;;24.90;23.23;;;;;;;;;;5093335;28;20836;-78
2023/07/04 11:03:51;;;;;;;24.50;22.70;;;;;;;;;;5094991;28;20457;-76
2023/07/04 11:06:29;;;;;;;25.90;24.20;;;;;;;;;;5092265;28;20480;-76
2023/07/04 11:09:00;;;;;;;25.53;23.60;;;;;;;;;;5093154;28;20478;-75
2023/07/04 11:11:28;;;;;;;26.00;24.43;;;;;;;;;;5092247;28;21113;-76
2023/07/04 11:13:57;;;;;;;27.17;24.97;;;;;;;;;;5092999;28;20452;-77
2023/07/04 11:16:27;;;;;;;24.90;23.30;;;;;;;;;;5091955;28;20452;-76
2023/07/04 11:19:00;;;;;;;25.80;24.10;;;;;;;;;;5092682;28;20742;-75
2023/07/04 11:21:27;;;;;;;24.63;22.90;;;;;;;;;;5092908;28;20469;-75
2023/07/04 11:23:56;;;;;;;24.70;22.90;;;;;;;;;;5092896;28;20415;-76
2023/07/04 11:26:46;;;;;;;26.23;24.13;;;;;;;;;;5092268;28;20483;-75
2023/07/04 11:29:17;;;;;;;24.33;22.73;;;;;;;;;;5092504;28;20532;-76
2023/07/04 11:31:59;;;;;;;24.87;23.13;;;;;;;;;;5093131;28;20498;-76
2023/07/04 11:34:42;;;;;;;26.17;24.07;;;;;;;;;;5093817;28;20476;-80
2023/07/04 11:37:10;;;;;;;25.33;23.10;;;;;;;;;;5093517;28;20408;-78
2023/07/04 11:39:38;;;;;;;27.03;24.70;;;;;;;;;;5095360;28;20433;-80
2023/07/04 11:42:18;;;;;;;24.80;23.03;;;;;;;;;;5094942;28;20872;-79
2023/07/04 11:44:50;;;;;;;24.87;23.07;;;;;;;;;;5093970;28;20433;-78
2023/07/04 11:47:18;;;;;;;24.50;22.60;;;;;;;;;;5093244;28;20449;-78
2023/07/04 11:49:55;;;;;;;24.90;23.10;;;;;;;;;;5093776;28;20445;-81
2023/07/04 11:52:25;;;;;;;26.33;24.03;;;;;;;;;;5092136;28;20833;-75
2023/07/04 11:54:56;;;;;;;24.97;23.30;;;;;;;;;;5092140;28;20432;-76
2023/07/04 11:57:25;;;;;;;25.07;23.37;;;;;;;;;;5090889;28;20437;-75
2023/07/04 11:59:52;;;;;;;26.20;24.40;;;;;;;;;;5091954;28;20454;-75
2023/07/04 12:02:29;;;;;;;25.67;23.63;;;;;;;;;;5090883;28;20438;-76
2023/07/04 12:04:57;;;;;;;26.60;24.70;;;;;;;;;;5091906;28;20497;-76
2023/07/04 12:07:40;;;;;;;26.93;24.40;;;;;;;;;;5091120;28;20794;-77
2023/07/04 12:10:10;;;;;;;24.87;23.17;;;;;;;;;;5091841;28;20507;-75
2023/07/04 12:12:39;;;;;;;25.80;23.57;;;;;;;;;;5091745;28;20419;-75
2023/07/04 12:15:08;;;;;;;26.03;24.23;;;;;;;;;;5091831;28;20427;-76
2023/07/04 12:17:38;;;;;;;24.40;22.70;;;;;;;;;;5091052;28;20437;-76
2023/07/04 12:20:09;;;;;;;25.10;23.40;;;;;;;;;;5092970;28;20452;-77
2023/07/04 12:22:36;;;;;;;24.60;22.97;;;;;;;;;;5092844;28;20457;-85
2023/07/04 12:25:10;;;;;;;24.90;23.37;;;;;;;;;;5095923;28;20453;-83
2023/07/04 12:27:43;;;;;;;25.13;23.37;;;;;;;;;;5095268;28;20494;-83
2023/07/04 12:30:12;;;;;;;25.30;23.27;;;;;;;;;;5095564;28;20476;-83
2023/07/04 12:32:40;;;;;;;25.00;23.20;;;;;;;;;;5094960;28;20452;-78
2023/07/04 12:35:07;;;;;;;24.20;22.50;;;;;;;;;;5091206;28;20824;-77
2023/07/04 12:37:39;;;;;;;24.80;22.83;;;;;;;;;;5090640;28;20423;-76
2023/07/04 12:40:13;;;;;;;24.87;23.17;;;;;;;;;;5091011;28;20465;-77
2023/07/04 12:42:43;;;;;;;25.07;23.20;;;;;;;;;;5091063;28;20437;-77
2023/07/04 12:45:10;;;;;;;24.03;22.13;;;;;;;;;;5090254;28;20468;-78
2023/07/04 12:47:37;;;;;;;24.47;22.77;;;;;;;;;;5090829;28;21128;-77
2023/07/04 12:50:05;;;;;;;24.90;22.97;;;;;;;;;;5090539;28;20457;-76
2023/07/04 12:52:33;;;;;;;23.63;22.03;;;;;;;;;;5091515;28;20452;-76
2023/07/04 12:55:01;;;;;;;24.23;22.37;;;;;;;;;;5091485;28;20488;-77
2023/07/04 12:57:28;;;;;;;25.27;23.60;;;;;;;;;;5089907;28;20953;-77
2023/07/04 13:00:09;;;;;;;24.83;23.03;;;;;;;;;;5089755;28;20506;-76
2023/07/04 13:02:36;;;;;;;25.90;24.00;;;;;;;;;;5090158;28;20784;-76
2023/07/04 13:05:04;;;;;;;23.70;22.00;;;;;;;;;;5091275;28;20482;-78
2023/07/04 13:07:31;;;;;;;23.93;22.13;;;;;;;;;;5089928;28;20472;-81
2023/07/04 13:10:00;;;;;;;24.40;22.80;;;;;;;;;;5089700;28;20453;-81
2023/07/04 13:12:28;;;;;;;25.63;23.47;;;;;;;;;;5093747;28;20412;-81
2023/07/04 13:15:11;;;;;;;25.27;23.47;;;;;;;;;;5093537;28;20869;-80
2023/07/04 13:17:38;;;;;;;24.93;23.00;;;;;;;;;;5089969;28;20480;-77
2023/07/04 13:20:12;;;;;;;24.63;22.77;;;;;;;;;;5090149;28;20454;-77
2023/07/04 13:22:39;;;;;;;24.87;23.20;;;;;;;;;;5091142;28;20491;-76
2023/07/04 13:25:23;;;;;;;24.80;23.00;;;;;;;;;;5091185;28;20983;-77
2023/07/04 13:27:50;;;;;;;25.00;23.10;;;;;;;;;;5091508;28;20460;-78
2023/07/04 13:30:26;;;;;;;24.77;23.07;;;;;;;;;;5093706;28;20476;-79
2023/07/04 13:32:54;;;;;;;25.37;23.50;;;;;;;;;;5091500;28;20834;-78
2023/07/04 13:35:22;;;;;;;24.90;23.30;;;;;;;;;;5091520;28;20457;-77
2023/07/04 13:37:49;;;;;;;25.00;22.90;;;;;;;;;;5090344;28;20480;-77
2023/07/04 13:40:16;;;;;;;25.60;23.90;;;;;;;;;;5091067;28;20581;-76
2023/07/04 13:43:01;;;;;;;25.30;23.60;;;;;;;;;;5091497;28;20457;-76
2023/07/04 13:45:30;;;;;;;25.10;22.90;;;;;;;;;;5090423;28;21014;-77
2023/07/04 13:47:57;;;;;;;24.83;23.03;;;;;;;;;;5091202;28;20422;-77
2023/07/04 13:50:24;;;;;;;27.07;25.17;;;;;;;;;;5090582;28;20481;-76
2023/07/04 13:52:51;;;;;;;25.37;23.17;;;;;;;;;;5090534;28;20419;-77
2023/07/04 13:55:18;;;;;;;25.20;23.50;;;;;;;;;;5090695;28;20501;-76
2023/07/04 13:57:45;;;;;;;25.37;23.57;;;;;;;;;;5090177;28;20453;-76
2023/07/04 14:00:13;;;;;;;25.30;23.50;;;;;;;;;;5090576;28;20469;-76
2023/07/04 14:02:42;;;;;;;27.10;24.47;;;;;;;;;;5092917;28;20974;-78
2023/07/04 14:05:09;;;;;;;25.30;23.60;;;;;;;;;;5095752;28;20783;-79
2023/07/04 14:07:36;;;;;;;24.60;22.70;;;;;;;;;;5095029;28;20466;-79
2023/07/04 14:10:03;;;;;;;24.90;22.93;;;;;;;;;;5095970;28;20448;-79
2023/07/04 14:12:30;;;;;;;24.43;22.53;;;;;;;;;;5096273;28;20787;-79
2023/07/04 14:14:57;;;;;;;25.17;23.47;;;;;;;;;;5095344;28;20494;-77
2023/07/04 14:17:25;;;;;;;24.90;23.30;;;;;;;;;;5094518;28;20452;-77
2023/07/04 14:19:54;;;;;;;26.73;24.60;;;;;;;;;;5094621;28;20514;-77
2023/07/04 14:22:21;;;;;;;26.50;24.40;;;;;;;;;;5093853;28;20453;-76
2023/07/04 14:24:48;;;;;;;25.83;23.83;;;;;;;;;;5094170;28;20453;-76